createdAt,value
2022-12-22T00:10:41.382Z,9.30
2022-12-22T00:13:29.407Z,9.30
2022-12-22T00:16:14.977Z,9.30
2022-12-22T00:19:00.323Z,9.30
2022-12-22T00:21:48.865Z,9.40
2022-12-22T00:24:33.923Z,9.40
2022-12-22T00:27:19.555Z,9.30
2022-12-22T00:30:04.939Z,9.30
2022-12-22T00:32:52.719Z,9.30
2022-12-22T00:35:40.556Z,9.40
2022-12-22T00:38:32.072Z,9.30
2022-12-22T00:41:17.568Z,9.40
2022-12-22T00:44:03.418Z,9.40
2022-12-22T00:46:48.938Z,9.40
2022-12-22T00:49:35.559Z,9.40
2022-12-22T00:52:22.268Z,9.40
2022-12-22T00:55:11.225Z,9.40
2022-12-22T00:57:56.769Z,9.40
2022-12-22T01:00:42.682Z,9.40
2022-12-22T01:03:29.316Z,9.40
2022-12-22T01:06:16.935Z,9.40
2022-12-22T01:09:01.783Z,9.40
2022-12-22T01:11:48.347Z,9.40
2022-12-22T01:14:35.174Z,9.40
2022-12-22T01:17:21.070Z,9.40
2022-12-22T01:20:06.331Z,9.50
2022-12-22T01:22:51.734Z,9.40
2022-12-22T01:25:37.989Z,9.40
2022-12-22T01:28:23.393Z,9.40
2022-12-22T01:31:08.780Z,9.40
2022-12-22T01:33:54.817Z,9.40
2022-12-22T01:36:40.100Z,9.40
2022-12-22T01:39:26.163Z,9.40
2022-12-22T01:42:11.503Z,9.40
2022-12-22T01:44:56.392Z,9.50
2022-12-22T01:47:50.438Z,9.50
2022-12-22T01:50:44.945Z,9.50
2022-12-22T01:53:34.848Z,9.50
2022-12-22T01:56:20.271Z,9.50
2022-12-22T01:59:09.549Z,9.50
2022-12-22T02:01:55.169Z,9.50
2022-12-22T02:04:44.266Z,9.50
2022-12-22T02:07:46.273Z,9.60
2022-12-22T02:10:43.596Z,9.50
2022-12-22T02:13:43.857Z,9.60
2022-12-22T02:16:34.009Z,9.50
2022-12-22T02:19:28.142Z,9.50
2022-12-22T02:22:24.723Z,9.50
2022-12-22T02:25:19.600Z,9.50
2022-12-22T02:28:09.781Z,9.50
2022-12-22T02:30:55.336Z,9.50
2022-12-22T02:33:40.855Z,9.50
2022-12-22T02:36:34.397Z,9.50
2022-12-22T02:39:28.824Z,9.50
2022-12-22T02:42:26.575Z,9.50
2022-12-22T02:45:22.270Z,9.50
2022-12-22T02:48:15.731Z,9.50
2022-12-22T02:51:07.612Z,9.50
2022-12-22T02:53:53.577Z,9.50
2022-12-22T02:56:38.460Z,9.50
2022-12-22T02:59:23.388Z,9.50
2022-12-22T03:02:09.466Z,9.50
2022-12-22T03:04:54.596Z,9.50
2022-12-22T03:07:39.902Z,9.50
2022-12-22T03:10:26.432Z,9.50
2022-12-22T03:13:11.464Z,9.50
2022-12-22T03:15:56.629Z,9.60
2022-12-22T03:18:42.610Z,9.60
2022-12-22T03:21:27.523Z,9.60
2022-12-22T03:24:12.270Z,9.70
2022-12-22T03:26:39.238Z,9.70
2022-12-22T03:29:08.237Z,9.70
2022-12-22T03:31:35.262Z,9.70
2022-12-22T03:34:03.023Z,9.70
2022-12-22T03:36:29.989Z,9.70
2022-12-22T03:38:56.921Z,9.80
2022-12-22T03:41:42.023Z,9.80
2022-12-22T03:44:27.013Z,9.80
2022-12-22T03:46:53.942Z,9.80
2022-12-22T03:49:22.368Z,9.90
2022-12-22T03:51:51.183Z,9.90
2022-12-22T03:54:19.473Z,9.90
2022-12-22T03:56:47.326Z,9.90
2022-12-22T03:59:14.885Z,9.90
2022-12-22T04:01:43.512Z,9.90
2022-12-22T04:04:11.460Z,9.90
2022-12-22T04:06:39.452Z,9.90
2022-12-22T04:09:06.881Z,9.90
2022-12-22T04:11:52.076Z,9.90
2022-12-22T04:14:19.375Z,9.90
2022-12-22T04:16:46.365Z,9.90
2022-12-22T04:19:13.315Z,9.90
2022-12-22T04:21:41.022Z,9.90
2022-12-22T04:24:08.755Z,9.90
2022-12-22T04:26:35.807Z,9.90
2022-12-22T04:29:02.961Z,9.90
2022-12-22T04:31:30.097Z,9.90
2022-12-22T04:33:57.061Z,10.00
2022-12-22T04:36:23.996Z,9.90
2022-12-22T04:38:51.661Z,10.00
2022-12-22T04:41:18.556Z,9.90
2022-12-22T04:43:45.404Z,9.90
2022-12-22T04:46:12.559Z,9.90
2022-12-22T04:48:39.513Z,9.90
2022-12-22T04:51:06.721Z,9.90
2022-12-22T04:53:33.944Z,9.90
2022-12-22T04:56:03.877Z,10.00
2022-12-22T04:58:31.938Z,10.00
2022-12-22T05:01:08.975Z,10.10
2022-12-22T05:03:35.954Z,10.10
2022-12-22T05:06:03.363Z,10.20
2022-12-22T05:08:30.285Z,10.20
2022-12-22T05:10:57.204Z,10.20
2022-12-22T05:13:24.866Z,10.20
2022-12-22T05:15:51.789Z,10.30
2022-12-22T05:18:18.685Z,10.30
2022-12-22T05:20:45.690Z,10.30
2022-12-22T05:23:13.059Z,10.30
2022-12-22T05:25:40.077Z,10.30
2022-12-22T05:28:06.984Z,10.30
2022-12-22T05:30:34.665Z,10.30
2022-12-22T05:33:01.589Z,10.30
2022-12-22T05:35:28.480Z,10.30
2022-12-22T05:37:55.377Z,10.30
2022-12-22T05:40:22.339Z,10.30
2022-12-22T05:42:49.278Z,10.30
2022-12-22T05:45:18.155Z,10.30
2022-12-22T05:47:48.019Z,10.20
2022-12-22T05:50:16.515Z,10.20
2022-12-22T05:52:43.871Z,10.20
2022-12-22T05:55:11.697Z,10.20
2022-12-22T05:57:38.828Z,10.20
2022-12-22T06:00:08.824Z,10.20
2022-12-22T06:02:35.938Z,10.20
2022-12-22T06:05:04.173Z,10.30
2022-12-22T06:07:31.122Z,10.30
2022-12-22T06:09:58.066Z,10.30
2022-12-22T06:12:25.068Z,10.30
2022-12-22T06:14:52.129Z,10.30
2022-12-22T06:17:18.991Z,10.30
2022-12-22T06:19:46.083Z,10.30
2022-12-22T06:22:13.731Z,10.30
2022-12-22T06:24:40.714Z,10.30
2022-12-22T06:27:08.279Z,10.30
2022-12-22T06:29:35.155Z,10.30
2022-12-22T06:32:02.016Z,10.30
2022-12-22T06:34:28.888Z,10.30
2022-12-22T06:36:55.831Z,10.30
2022-12-22T06:39:23.746Z,10.30
2022-12-22T06:42:08.795Z,10.30
2022-12-22T06:44:35.840Z,10.30
2022-12-22T06:47:02.737Z,10.30
2022-12-22T06:49:29.643Z,10.30
2022-12-22T06:51:56.595Z,10.20
2022-12-22T06:54:26.462Z,10.20
2022-12-22T06:56:53.751Z,10.20
2022-12-22T06:59:20.605Z,10.10
2022-12-22T07:01:47.606Z,10.10
2022-12-22T07:04:19.079Z,10.10
2022-12-22T07:06:46.351Z,10.20
2022-12-22T07:09:13.305Z,10.20
2022-12-22T07:11:41.209Z,10.10
2022-12-22T07:14:08.323Z,10.20
2022-12-22T07:16:35.331Z,10.10
2022-12-22T07:19:02.337Z,10.10
2022-12-22T07:21:29.328Z,10.10
2022-12-22T07:23:56.223Z,10.10
2022-12-22T07:26:23.131Z,10.10
2022-12-22T07:28:50.788Z,10.10
2022-12-22T07:31:18.668Z,10.20
2022-12-22T07:33:45.714Z,10.10
2022-12-22T07:36:14.458Z,10.10
2022-12-22T07:38:43.264Z,10.20
2022-12-22T07:41:26.404Z,10.20
2022-12-22T07:43:55.723Z,10.20
2022-12-22T07:46:23.906Z,10.20
2022-12-22T07:49:08.850Z,10.20
2022-12-22T07:51:36.600Z,10.20
2022-12-22T07:54:05.948Z,10.20
2022-12-22T07:56:32.921Z,10.20
2022-12-22T07:59:00.895Z,10.20
2022-12-22T08:01:28.254Z,10.20
2022-12-22T08:03:55.254Z,10.20
2022-12-22T08:06:22.183Z,10.20
2022-12-22T08:08:49.105Z,10.30
2022-12-22T08:11:16.786Z,10.30
2022-12-22T08:13:43.793Z,10.30
2022-12-22T08:16:13.092Z,10.30
2022-12-22T08:18:40.788Z,10.20
2022-12-22T08:21:08.769Z,10.30
2022-12-22T08:23:36.242Z,10.20
2022-12-22T08:26:10.086Z,10.30
2022-12-22T08:28:41.474Z,10.30
2022-12-22T08:31:08.668Z,10.30
2022-12-22T08:33:36.800Z,10.30
2022-12-22T08:36:08.040Z,10.30
2022-12-22T08:38:36.332Z,10.40
2022-12-22T08:41:03.363Z,10.40
2022-12-22T08:43:32.726Z,10.40
2022-12-22T08:45:59.706Z,10.40
2022-12-22T08:48:26.597Z,10.40
2022-12-22T08:50:54.192Z,10.40
2022-12-22T08:54:02.643Z,10.40
2022-12-22T08:56:08.669Z,10.40
2022-12-22T08:58:38.975Z,10.50
2022-12-22T09:01:06.185Z,10.50
2022-12-22T09:03:33.230Z,10.50
2022-12-22T09:06:01.637Z,10.50
2022-12-22T09:08:28.683Z,10.50
2022-12-22T09:10:55.666Z,10.60
2022-12-22T09:13:22.629Z,10.60
2022-12-22T09:15:49.623Z,10.60
2022-12-22T09:18:16.755Z,10.60
2022-12-22T09:20:43.746Z,10.60
2022-12-22T09:23:11.431Z,10.60
2022-12-22T09:25:38.485Z,10.70
2022-12-22T09:28:07.475Z,10.70
2022-12-22T09:30:34.398Z,10.70
2022-12-22T09:33:01.382Z,10.70
2022-12-22T09:35:28.350Z,10.70
2022-12-22T09:37:55.315Z,10.70
2022-12-22T09:40:24.163Z,10.80
2022-12-22T09:42:51.252Z,10.80
2022-12-22T09:45:20.123Z,10.80
2022-12-22T09:47:53.112Z,10.80
2022-12-22T09:50:23.001Z,10.80
2022-12-22T09:52:53.016Z,10.80
2022-12-22T09:55:38.036Z,10.80
2022-12-22T09:58:20.676Z,10.90
2022-12-22T10:00:55.759Z,10.80
2022-12-22T10:03:33.039Z,10.80
2022-12-22T10:06:09.243Z,10.90
2022-12-22T10:08:40.189Z,10.90
2022-12-22T10:11:12.766Z,10.90
2022-12-22T10:13:39.815Z,10.90
2022-12-22T10:16:21.490Z,10.90
2022-12-22T10:18:58.251Z,10.90
2022-12-22T10:21:25.897Z,10.90
2022-12-22T10:23:53.951Z,10.90
2022-12-22T10:26:28.668Z,11.00
2022-12-22T10:29:01.156Z,10.90
2022-12-22T10:31:30.259Z,10.90
2022-12-22T10:34:11.374Z,11.00
2022-12-22T10:36:39.439Z,11.00
2022-12-22T10:39:08.987Z,11.00
2022-12-22T10:41:40.136Z,11.00
2022-12-22T10:44:10.976Z,11.10
2022-12-22T10:46:41.139Z,11.10
2022-12-22T10:49:16.592Z,11.10
2022-12-22T10:51:45.475Z,11.20
2022-12-22T10:54:25.903Z,11.20
2022-12-22T10:57:05.347Z,11.30
2022-12-22T10:59:34.052Z,11.30
2022-12-22T11:02:24.887Z,11.30
2022-12-22T11:04:52.675Z,11.30
2022-12-22T11:07:20.265Z,11.40
2022-12-22T11:09:47.342Z,11.40
2022-12-22T11:12:32.159Z,11.40
2022-12-22T11:15:04.227Z,11.40
2022-12-22T11:17:39.285Z,11.40
2022-12-22T11:20:30.356Z,11.40
2022-12-22T11:23:02.877Z,11.40
2022-12-22T11:25:39.803Z,11.50
2022-12-22T11:28:23.025Z,11.50
2022-12-22T11:31:01.458Z,11.50
2022-12-22T11:33:40.499Z,11.60
2022-12-22T11:36:14.082Z,11.60
2022-12-22T11:38:50.271Z,11.70
2022-12-22T11:41:28.098Z,11.70
2022-12-22T11:44:09.352Z,11.70
2022-12-22T11:46:46.177Z,11.80
2022-12-22T11:49:29.051Z,11.80
2022-12-22T11:52:11.670Z,11.80
2022-12-22T11:54:59.919Z,11.90
2022-12-22T11:57:35.135Z,11.80
2022-12-22T12:00:08.807Z,11.80
2022-12-22T12:03:22.264Z,11.90
2022-12-22T12:06:11.091Z,12.00
2022-12-22T12:08:50.391Z,12.00
2022-12-22T12:11:26.932Z,12.00
2022-12-22T12:14:01.905Z,12.00
2022-12-22T12:16:37.705Z,12.00
2022-12-22T12:19:45.554Z,12.00
2022-12-22T12:22:21.426Z,12.00
2022-12-22T12:24:59.764Z,12.00
2022-12-22T12:27:41.726Z,12.00
2022-12-22T12:33:08.688Z,12.10
2022-12-22T12:35:46.767Z,12.00
2022-12-22T12:38:56.834Z,12.00
2022-12-22T12:41:18.434Z,12.00
2022-12-22T12:43:48.129Z,12.00
2022-12-22T12:46:52.606Z,12.00
2022-12-22T12:49:59.240Z,12.00
2022-12-22T12:53:08.603Z,12.00
2022-12-22T12:55:52.925Z,12.00
2022-12-22T12:58:54.861Z,12.00
2022-12-22T13:01:57.738Z,12.10
2022-12-22T13:05:05.178Z,12.10
2022-12-22T13:08:11.047Z,12.10
2022-12-22T13:10:41.612Z,12.10
2022-12-22T13:13:12.258Z,12.10
2022-12-22T13:15:41.217Z,12.10
2022-12-22T13:18:40.792Z,12.20
2022-12-22T13:24:23.994Z,12.10
2022-12-22T13:26:54.830Z,12.10
2022-12-22T13:29:29.437Z,12.10
2022-12-22T13:32:00.149Z,12.10
2022-12-22T13:35:04.470Z,12.10
2022-12-22T13:37:30.169Z,12.10
2022-12-22T13:40:14.558Z,12.10
2022-12-22T13:42:45.173Z,12.10
2022-12-22T13:45:18.085Z,12.10
2022-12-22T13:47:47.085Z,12.10
2022-12-22T13:50:24.107Z,12.10
2022-12-22T13:52:54.355Z,12.20
2022-12-22T13:55:26.241Z,12.20
2022-12-22T13:57:58.446Z,12.20
2022-12-22T14:00:29.218Z,12.20
2022-12-22T14:02:56.261Z,12.20
2022-12-22T14:05:29.686Z,12.20
2022-12-22T14:08:03.120Z,12.20
2022-12-22T14:10:34.366Z,12.10
2022-12-22T14:13:06.374Z,12.10
2022-12-22T14:15:33.944Z,12.10
2022-12-22T14:18:01.318Z,12.10
2022-12-22T14:20:32.457Z,12.10
2022-12-22T14:23:05.152Z,12.10
2022-12-22T14:25:36.611Z,12.10
2022-12-22T14:28:06.732Z,12.10
2022-12-22T14:30:38.920Z,12.00
2022-12-22T14:33:17.821Z,12.00
2022-12-22T14:35:45.041Z,12.00
2022-12-22T14:38:21.702Z,12.00
2022-12-22T14:40:56.264Z,12.00
2022-12-22T14:43:28.029Z,11.90
2022-12-22T14:46:05.527Z,11.90
2022-12-22T14:48:37.858Z,11.80
2022-12-22T14:51:06.065Z,11.80
2022-12-22T14:53:42.579Z,11.80
2022-12-22T14:56:12.869Z,11.70
2022-12-22T14:58:41.971Z,11.70
2022-12-22T15:01:15.716Z,11.70
2022-12-22T15:03:43.565Z,11.70
2022-12-22T15:06:32.020Z,11.70
2022-12-22T15:09:47.188Z,11.70
2022-12-22T15:12:13.277Z,11.60
2022-12-22T15:14:40.844Z,11.60
2022-12-22T15:17:20.376Z,11.50
2022-12-22T15:19:47.689Z,11.50
2022-12-22T15:22:15.193Z,11.50
2022-12-22T15:24:43.316Z,11.50
2022-12-22T15:27:10.362Z,11.50
2022-12-22T15:29:37.355Z,11.60
2022-12-22T15:32:09.504Z,11.50
2022-12-22T15:34:36.837Z,11.60
2022-12-22T15:37:04.244Z,11.60
2022-12-22T15:39:31.348Z,11.50
2022-12-22T15:41:59.003Z,11.60
2022-12-22T15:44:26.209Z,11.50
2022-12-22T15:46:55.747Z,11.50
2022-12-22T15:49:25.528Z,11.50
2022-12-22T15:51:54.958Z,11.50
2022-12-22T15:54:22.528Z,11.50
2022-12-22T15:56:53.185Z,11.50
2022-12-22T15:59:24.964Z,11.50
2022-12-22T16:01:58.394Z,11.40
2022-12-22T16:04:27.706Z,11.40
2022-12-22T16:06:54.742Z,11.30
2022-12-22T16:09:25.474Z,11.30
2022-12-22T16:11:53.167Z,11.30
2022-12-22T16:14:22.257Z,11.30
2022-12-22T16:16:49.448Z,11.30
2022-12-22T16:19:18.791Z,11.30
2022-12-22T16:21:48.608Z,11.20
2022-12-22T16:24:25.778Z,11.20
2022-12-22T16:26:56.232Z,11.20
2022-12-22T16:29:24.485Z,11.20
2022-12-22T16:31:51.625Z,11.20
2022-12-22T16:34:18.688Z,11.20
2022-12-22T16:36:48.365Z,11.20
2022-12-22T16:39:15.455Z,11.20
2022-12-22T16:41:44.551Z,11.20
2022-12-22T16:44:22.730Z,11.30
2022-12-22T16:46:50.809Z,11.20
2022-12-22T16:49:26.437Z,11.20
2022-12-22T16:51:54.532Z,11.20
2022-12-22T16:54:21.715Z,11.20
2022-12-22T16:56:51.050Z,11.10
2022-12-22T16:59:18.443Z,11.10
2022-12-22T17:01:50.805Z,11.10
2022-12-22T17:04:24.368Z,11.00
2022-12-22T17:06:52.428Z,10.90
2022-12-22T17:09:23.629Z,10.90
2022-12-22T17:11:51.462Z,10.80
2022-12-22T17:14:27.997Z,10.80
2022-12-22T17:16:55.380Z,10.80
2022-12-22T17:19:23.799Z,10.80
2022-12-22T17:21:52.686Z,10.90
2022-12-22T17:24:27.536Z,10.90
2022-12-22T17:26:56.382Z,10.90
2022-12-22T17:29:24.943Z,10.90
2022-12-22T17:31:56.375Z,10.90
2022-12-22T17:34:24.884Z,10.80
2022-12-22T17:36:52.058Z,10.80
2022-12-22T17:39:21.170Z,10.70
2022-12-22T17:41:54.317Z,10.70
2022-12-22T17:44:24.973Z,10.70
2022-12-22T17:46:52.646Z,10.70
2022-12-22T17:49:21.534Z,10.70
2022-12-22T17:51:50.105Z,10.70
2022-12-22T17:54:22.194Z,10.70
2022-12-22T17:56:50.112Z,10.70
2022-12-22T17:59:17.121Z,10.70
2022-12-22T18:01:44.777Z,10.70
2022-12-22T18:04:12.250Z,10.70
2022-12-22T18:06:41.679Z,10.70
2022-12-22T18:09:18.694Z,10.70
2022-12-22T18:11:46.294Z,10.70
2022-12-22T18:14:13.990Z,10.80
2022-12-22T18:16:41.880Z,10.70
2022-12-22T18:19:08.933Z,10.80
2022-12-22T18:21:35.955Z,10.80
2022-12-22T18:24:04.404Z,10.80
2022-12-22T18:26:32.267Z,10.80
2022-12-22T18:29:06.392Z,10.70
2022-12-22T18:31:34.029Z,10.70
2022-12-22T18:34:01.085Z,10.70
2022-12-22T18:36:30.311Z,10.60
2022-12-22T18:38:58.369Z,10.50
2022-12-22T18:41:27.171Z,10.50
2022-12-22T18:43:55.229Z,10.40
2022-12-22T18:46:22.356Z,10.30
2022-12-22T18:48:49.406Z,10.30
2022-12-22T18:51:19.576Z,10.20
2022-12-22T18:53:47.049Z,10.20
2022-12-22T18:56:14.195Z,10.20
2022-12-22T18:58:41.455Z,10.20
2022-12-22T19:01:17.510Z,10.20
2022-12-22T19:03:45.161Z,10.20
2022-12-22T19:06:12.150Z,10.20
2022-12-22T19:08:45.153Z,10.30
2022-12-22T19:11:14.096Z,10.20
2022-12-22T19:13:44.079Z,10.20
2022-12-22T19:16:13.768Z,10.20
2022-12-22T19:18:40.955Z,10.10
2022-12-22T19:21:11.728Z,10.10
2022-12-22T19:23:38.795Z,10.10
2022-12-22T19:26:09.174Z,10.00
2022-12-22T19:28:38.873Z,10.00
2022-12-22T19:31:06.996Z,10.00
2022-12-22T19:33:37.523Z,10.00
2022-12-22T19:36:05.201Z,10.00
2022-12-22T19:38:34.993Z,9.90
2022-12-22T19:41:04.281Z,9.90
2022-12-22T19:43:31.607Z,9.90
2022-12-22T19:45:58.698Z,9.80
2022-12-22T19:48:26.895Z,9.80
2022-12-22T19:50:54.827Z,9.80
2022-12-22T19:53:22.166Z,9.80
2022-12-22T19:55:52.174Z,9.80
2022-12-22T19:58:23.907Z,9.80
2022-12-22T20:00:51.058Z,9.80
2022-12-22T20:03:22.600Z,9.80
2022-12-22T20:05:50.179Z,9.80
2022-12-22T20:08:18.041Z,9.70
2022-12-22T20:10:45.946Z,9.70
2022-12-22T20:13:15.939Z,9.70
2022-12-22T20:15:43.800Z,9.70
2022-12-22T20:18:16.950Z,9.70
2022-12-22T20:20:45.938Z,9.70
2022-12-22T20:23:15.667Z,9.60
2022-12-22T20:25:45.323Z,9.60
2022-12-22T20:28:14.929Z,9.60
2022-12-22T20:30:42.021Z,9.60
2022-12-22T20:33:09.010Z,9.70
2022-12-22T20:35:37.517Z,9.70
2022-12-22T20:38:13.957Z,9.70
2022-12-22T20:40:40.892Z,9.70
2022-12-22T20:43:14.109Z,9.60
2022-12-22T20:45:41.912Z,9.70
2022-12-22T20:48:18.875Z,9.70
2022-12-22T20:50:46.141Z,9.70
2022-12-22T20:53:17.518Z,9.70
2022-12-22T20:55:45.149Z,9.70
2022-12-22T20:58:17.077Z,9.80
2022-12-22T21:00:44.155Z,9.80
2022-12-22T21:03:11.251Z,9.80
2022-12-22T21:05:38.342Z,9.80
2022-12-22T21:08:18.283Z,9.80
2022-12-22T21:10:48.006Z,9.80
2022-12-22T21:13:16.579Z,9.80
2022-12-22T21:15:45.624Z,9.80
2022-12-22T21:18:16.362Z,9.80
2022-12-22T21:20:44.167Z,9.80
2022-12-22T21:23:11.229Z,9.90
2022-12-22T21:25:43.157Z,9.90
2022-12-22T21:28:21.154Z,9.90
2022-12-22T21:30:48.257Z,9.80
2022-12-22T21:33:15.186Z,9.90
2022-12-22T21:35:42.231Z,9.80
2022-12-22T21:38:14.974Z,9.80
2022-12-22T21:40:41.879Z,9.80
2022-12-22T21:43:10.729Z,9.80
2022-12-22T21:45:42.777Z,9.90
2022-12-22T21:48:12.353Z,9.90
2022-12-22T21:50:39.700Z,9.90
2022-12-22T21:53:06.684Z,9.90
2022-12-22T21:55:36.244Z,10.00
2022-12-22T21:58:04.532Z,10.00
2022-12-22T22:00:32.624Z,10.00
2022-12-22T22:03:01.690Z,10.00
2022-12-22T22:05:31.317Z,10.00
2022-12-22T22:07:59.308Z,10.00
2022-12-22T22:10:28.500Z,10.00
2022-12-22T22:12:55.882Z,9.90
2022-12-22T22:15:25.540Z,9.90
2022-12-22T22:17:52.992Z,9.90
2022-12-22T22:20:22.866Z,9.90
2022-12-22T22:22:51.309Z,9.90
2022-12-22T22:25:19.499Z,9.90
2022-12-22T22:27:48.076Z,9.90
2022-12-22T22:30:17.192Z,9.90
2022-12-22T22:32:44.671Z,9.90
2022-12-22T22:35:12.303Z,9.90
2022-12-22T22:37:40.458Z,9.90
2022-12-22T22:40:09.556Z,9.90
2022-12-22T22:42:37.368Z,9.90
2022-12-22T22:45:05.659Z,9.90
2022-12-22T22:47:32.816Z,9.90
2022-12-22T22:50:00.199Z,9.90
2022-12-22T22:52:27.157Z,9.90
2022-12-22T22:54:54.833Z,9.90
2022-12-22T22:57:21.746Z,9.90
2022-12-22T22:59:48.747Z,9.90
2022-12-22T23:02:16.081Z,9.80
2022-12-22T23:04:43.747Z,9.90
2022-12-22T23:07:10.981Z,9.80
2022-12-22T23:09:38.197Z,9.80
2022-12-22T23:12:06.151Z,9.80
2022-12-22T23:14:33.365Z,9.80
2022-12-22T23:17:00.275Z,9.80
2022-12-22T23:19:27.410Z,9.80
2022-12-22T23:21:54.321Z,9.80
2022-12-22T23:24:21.296Z,9.80
2022-12-22T23:26:48.463Z,9.80
2022-12-22T23:29:16.339Z,9.80
2022-12-22T23:31:43.693Z,9.90
2022-12-22T23:34:11.457Z,9.90
2022-12-22T23:36:38.625Z,9.90
2022-12-22T23:39:05.735Z,9.90
2022-12-22T23:41:32.738Z,9.90
2022-12-22T23:43:59.758Z,10.00
2022-12-22T23:46:27.573Z,9.90
2022-12-22T23:48:56.194Z,9.90
2022-12-22T23:51:26.071Z,9.80
2022-12-22T23:53:53.186Z,9.80
2022-12-22T23:56:20.176Z,9.80
2022-12-22T23:58:50.991Z,9.80
